• Join FlightAware (Why Join?)
  • Login
  • US Flag 
08:11AM EDT


 

Airport Tracker/Info


-or-


 

Live Flight TrackerFlight Track Log ✈ VH-CBT ✈ 13-Oct-2013 ✈ YBAF - YBUD / BDB

Flight Track Log - Related Links

Times and Time Zones

All times are in EDT time to prevent confusion due to time zone crossing. See the VH-CBT flight status page for this flight to view local times or setup timezone preferences in your user account.

Time Position Orientation Groundspeed Altitude Reporting Facility
EDT Latitude Longitude Course Direction KTS MPH feet Rate Location/Type
06:20AM -27.5703 153.0160 111° Southeast 7,300  Level Aus ATC (Calculated)
06:21AM -27.5815 153.0497 325° Northwest 117 135 1,200 -4,740 Descending Aus ATC (RADAR)
06:22AM -27.5660 153.0374 325° Northwest 117 135 1,500 240 Climbing Aus ATC (RADAR)
06:22AM -27.5775 153.0138 241° Southwest 151 174 1,500 120 Level Aus ATC (RADAR)
06:23AM -27.5999 153.0347 140° Southeast 167 192 1,700 420 Climbing Aus ATC (RADAR)
06:23AM -27.6073 153.0573 110° East 153 176 2,000 420 Climbing Aus ATC (RADAR)
06:24AM -27.6163 153.0838 111° Southeast 153 176 2,200 240 Climbing Aus ATC (RADAR)
06:24AM -27.6239 153.1063 111° Southeast 152 175 2,300 300 Climbing Aus ATC (RADAR)
06:25AM -27.6378 153.1496 110° East 160 184 2,700 600 Climbing Aus ATC (RADAR)
06:26AM -27.6431 153.1689 107° East 155 178 3,100 840 Climbing Aus ATC (RADAR)
06:26AM -27.6327 153.1864 56° Northeast 139 160 3,500 840 Climbing Aus ATC (RADAR)
06:27AM -27.6119 153.2052 39° Northeast 131 151 4,200 840 Climbing Aus ATC (RADAR)
06:27AM -27.5951 153.2053 360° North 124 143 4,600 780 Climbing Aus ATC (RADAR)
06:28AM -27.5763 153.2001 346° North 120 138 5,100 780 Climbing Aus ATC (RADAR)
06:28AM -27.5599 153.1947 344° North 121 139 5,500 780 Climbing Aus ATC (RADAR)
06:29AM -27.5405 153.1887 345° North 122 140 6,000 960 Climbing Aus ATC (RADAR)
06:30AM -27.5123 153.1813 347° North 122 140 6,900 1,020 Climbing Aus ATC (RADAR)
06:30AM -27.4957 153.1758 344° North 123 142 7,400 960 Climbing Aus ATC (RADAR)
06:31AM -27.4826 153.1721 346° North 116 133 7,800 900 Climbing Aus ATC (RADAR)
06:31AM -27.4622 153.1657 344° North 112 129 8,400 840 Climbing Aus ATC (RADAR)
06:32AM -27.4470 153.1604 343° North 113 130 8,800 900 Climbing Aus ATC (RADAR)
06:33AM -27.4291 153.1552 345° North 112 129 9,400 900 Climbing Aus ATC (RADAR)
06:33AM -27.4113 153.1505 347° North 111 128 9,900 780 Climbing Aus ATC (RADAR)
06:34AM -27.3909 153.1450 347° North 111 128 10,400 720 Climbing Aus ATC (RADAR)
06:34AM -27.3730 153.1401 346° North 112 129 10,800 780 Climbing Aus ATC (RADAR)
06:35AM -27.3367 153.1390 359° North 123 142 11,700 840 Climbing Aus ATC (RADAR)
06:36AM -27.3222 153.1382 357° North 124 143 12,100 900 Climbing Aus ATC (RADAR)
06:36AM -27.3014 153.1366 356° North 128 147 12,600 840 Climbing Aus ATC (RADAR)
06:37AM -27.2774 153.1349 356° North 129 148 13,200 960 Climbing Aus ATC (RADAR)
06:38AM -27.2566 153.1335 357° North 127 146 13,800 720 Climbing Aus ATC (RADAR)
06:38AM -27.2348 153.1317 356° North 135 155 14,100 180 Climbing Aus ATC (RADAR)
06:39AM -27.2118 153.1295 355° North 161 185 14,000 -120 Descending Aus ATC (RADAR)
06:39AM -27.1879 153.1280 357° North 170 196 14,000 -180 Level Aus ATC (RADAR)
06:40AM -27.1512 153.1257 357° North 178 205 13,800 -180 Descending Aus ATC (RADAR)
06:41AM -27.1228 153.1236 356° North 176 203 13,800  Level Aus ATC (RADAR)
06:41AM -27.1028 153.1224 357° North 174 200 13,800  Level Aus ATC (RADAR)
06:42AM -27.0745 153.1206 357° North 174 200 13,800  Level Aus ATC (RADAR)
06:42AM -27.0383 153.1173 355° North 173 199 13,800  Level Aus ATC (RADAR)
06:43AM -27.0132 153.1063 339° North 165 190 13,800  Level Aus ATC (RADAR)
06:44AM -26.9847 153.0939 339° North 162 186 13,800  Level Aus ATC (RADAR)
06:44AM -26.9663 153.0863 340° North 166 191 13,800  Level Aus ATC (RADAR)
06:45AM -26.9403 153.0768 342° North 167 192 13,800  Level Aus ATC (RADAR)
06:46AM -26.8971 153.0607 342° North 160 184 13,800 60 Level Aus ATC (RADAR)
06:46AM -26.8791 153.0538 341° North 162 186 13,900 60 Climbing Aus ATC (RADAR)
06:47AM -26.8536 153.0442 341° North 165 190 13,900  Level Aus ATC (RADAR)
06:47AM -26.8242 153.0325 341° North 165 190 13,900  Level Aus ATC (RADAR)
06:48AM -26.8057 153.0256 341° North 167 192 13,900  Level Aus ATC (RADAR)
06:48AM -26.7837 153.0171 341° North 168 193 13,900 -120 Level Aus ATC (RADAR)
06:49AM -26.7546 153.0058 341° North 166 191 13,800 -120 Descending Aus ATC (RADAR)
06:49AM -26.7363 152.9994 343° North 165 190 13,800  Level Aus ATC (RADAR)
06:50AM -26.7109 152.9895 341° North 165 190 13,800  Level Aus ATC (RADAR)
06:50AM -26.6813 152.9783 341° North 167 192 13,800  Level Aus ATC (RADAR)
06:51AM -26.6628 152.9715 342° North 167 192 13,800  Level Aus ATC (RADAR)
06:51AM -26.6370 152.9618 342° North 167 192 13,800  Level Aus ATC (RADAR)
06:52AM -26.6073 152.9507 341° North 168 193 13,800  Level Aus ATC (RADAR)
06:52AM -26.5924 152.9448 341° North 168 193 13,800  Level Aus ATC (RADAR)
06:53AM -26.5662 152.9350 341° North 169 194 13,800  Level Aus ATC (RADAR)
06:54AM -26.5364 152.9235 341° North 168 193 13,800  Level Aus ATC (RADAR)
06:54AM -26.5175 152.9164 341° North 170 196 13,800 180 Level Aus ATC (RADAR)
06:55AM -26.4907 152.9063 341° North 173 199 14,000 60 Climbing Aus ATC (RADAR)
06:56AM -26.4487 152.8910 342° North 173 199 13,900 -180 Descending Aus ATC (RADAR)
06:56AM -26.4299 152.8837 341° North 172 198 13,800  Descending Aus ATC (RADAR)
06:57AM -26.4071 152.8754 342° North 171 197 13,900 60 Climbing Aus ATC (RADAR)
06:57AM -26.3739 152.8632 342° North 167 192 13,900  Level Aus ATC (RADAR)
06:58AM -26.3588 152.8576 341° North 169 194 13,900 -120 Level Aus ATC (RADAR)
06:58AM -26.3323 152.8479 342° North 170 196 13,800  Descending Aus ATC (RADAR)
06:59AM -26.3024 152.8367 341° North 169 194 13,900 60 Climbing Aus ATC (RADAR)
06:59AM -26.2840 152.8294 340° North 168 193 13,900  Level Aus ATC (RADAR)
07:00AM -26.2575 152.8197 342° North 170 196 13,900 60 Level Aus ATC (RADAR)
07:01AM -26.2272 152.8081 341° North 172 198 14,000 -120 Climbing Aus ATC (RADAR)
07:01AM -26.2081 152.8007 341° North 173 199 13,800 -120 Descending Aus ATC (RADAR)
07:02AM -26.1815 152.7907 341° North 173 199 13,900 120 Climbing Aus ATC (RADAR)
07:02AM -26.1508 152.7795 342° North 173 199 14,000 60 Climbing Aus ATC (RADAR)
07:03AM -26.1279 152.7700 340° North 173 199 14,000 -120 Level Aus ATC (RADAR)
07:03AM -26.1012 152.7604 342° North 171 197 13,900 -120 Descending Aus ATC (RADAR)
07:04AM -26.0709 152.7501 343° North 170 196 13,900  Level Aus ATC (RADAR)
07:05AM -26.0439 152.7384 339° North 174 200 13,900  Level Aus ATC (RADAR)
07:05AM -26.0167 152.7295 344° North 172 198 13,900  Level Aus ATC (RADAR)
07:06AM -25.9895 152.7184 340° North 176 203 13,900 -120 Level Aus ATC (RADAR)
07:06AM -25.9618 152.7086 342° North 174 200 13,800 -120 Descending Aus ATC (RADAR)
07:07AM -25.9384 152.6995 341° North 177 204 13,800 60 Level Aus ATC (RADAR)
07:07AM -25.9072 152.6876 341° North 177 204 13,900 60 Climbing Aus ATC (RADAR)
07:08AM -25.8799 152.6773 341° North 176 203 13,900  Level Aus ATC (RADAR)
07:09AM -25.8525 152.6673 342° North 176 203 13,900 60 Level Aus ATC (RADAR)
07:09AM -25.8248 152.6572 342° North 180 207 14,000 -120 Climbing Aus ATC (RADAR)
07:10AM -25.7976 152.6476 342° North 176 203 13,800 -120 Descending Aus ATC (RADAR)
07:11AM -25.7589 152.6332 341° North 174 200 13,900 60 Climbing Aus ATC (RADAR)
07:11AM -25.7394 152.6260 342° North 175 201 13,900  Level Aus ATC (RADAR)
07:11AM -25.7237 152.6214 345° North 176 203 13,900 -120 Level Aus ATC (RADAR)
07:12AM -25.6963 152.6109 341° North 178 205 13,800  Descending Aus ATC (RADAR)
07:13AM -25.6649 152.5989 341° North 179 206 13,900 60 Climbing Aus ATC (RADAR)
07:13AM -25.6435 152.5951 351° North 179 206 13,900  Level Aus ATC (RADAR)
07:14AM -25.6151 152.5888 349° North 177 204 13,900 60 Level Aus ATC (RADAR)
07:14AM -25.5869 152.5820 348° North 177 204 14,000 -240 Climbing Aus ATC (RADAR)
07:15AM -25.5665 152.5766 347° North 179 206 13,700 -1,140 Descending Aus ATC (RADAR)
07:15AM -25.5337 152.5681 347° North 207 238 12,900 -1,200 Descending Aus ATC (RADAR)
07:16AM -25.4948 152.5590 348° North 213 245 12,200 -1,200 Descending Aus ATC (RADAR)
07:16AM -25.4698 152.5531 348° North 218 251 11,600 -1,200 Descending Aus ATC (RADAR)
07:17AM -25.4353 152.5447 348° North 218 251 11,000 -960 Descending Aus ATC (RADAR)
07:18AM -25.3971 152.5356 348° North 210 242 10,400 -1,320 Descending Aus ATC (RADAR)
07:18AM -25.3631 152.5277 348° North 216 249 9,400 -1,860 Descending Aus ATC (RADAR)
07:19AM -25.3329 152.5207 348° North 222 255 8,400 -1,800 Descending Aus ATC (RADAR)
07:19AM -25.2934 152.5126 349° North 218 251 7,300 -1,620 Descending Aus ATC (RADAR)
07:20AM -25.2598 152.5050 348° North 214 246 6,400 -1,680 Descending Aus ATC (RADAR)
07:21AM -25.2127 152.4956 350° North 206 237 5,000 -1,680 Descending Aus ATC (RADAR)
07:21AM -25.1966 152.4890 339° North 200 230 4,500 -1,440 Descending Aus ATC (RADAR)
07:21AM -25.1922 152.4876 344° North 200 230 4,400 -1,200 Descending Aus ATC (RADAR)
07:24AM -25.1201 152.4453 332° Northwest 100 -1,440 Descending Aus ATC (Calculated)
07:26AM -25.0737 152.4181 332° Northwest  Level FlightAware Approximate
07:27AM -25.0385 152.3974 332° Northwest  Level FlightAware Approximate
07:28AM -25.0032 152.3768 332° Northwest  Level FlightAware Approximate
07:29AM -24.9679 152.3562 332° Northwest  Level FlightAware Approximate
07:30AM -24.9327 152.3356 332° Northwest  Level FlightAware Approximate
07:31AM -24.9039 152.3186 332° Northwest  Level Estimated